Terminal Aerodrome Forecast
Issued by NWS Sioux Falls, SD

Home | Current Version | Previous Version | Graphics & Text | Print | Product List | Glossary On
Versions: 1 2 3 4 5 6 7 8 9 10 11 12 13 14 15 16 17 18 19 20
206
FTUS43 KFSD 212320
TAFSUX
TAF
KSUX 212320Z 2200/2224 07011KT P6SM SCT060 OVC250
     FM220200 06007KT P6SM BKN250
     FM221200 03004KT P6SM FEW250=

USA.gov is the U.S. government's official web portal to all federal, state and local government web resources and services.